sensor_id;sensor_type;location;lat;lon;timestamp;P1;durP1;ratioP1;P2;durP2;ratioP2
49614;SDS011;35517;45.272;9.984;2022-11-27T00:01:24;44.85;;;24.30;;
49614;SDS011;35517;45.272;9.984;2022-11-27T00:03:50;38.08;;;26.10;;
49614;SDS011;35517;45.272;9.984;2022-11-27T00:06:19;46.80;;;28.00;;
49614;SDS011;35517;45.272;9.984;2022-11-27T00:08:45;48.15;;;26.48;;
49614;SDS011;35517;45.272;9.984;2022-11-27T00:11:13;64.82;;;30.25;;
49614;SDS011;35517;45.272;9.984;2022-11-27T00:13:40;47.00;;;28.23;;
49614;SDS011;35517;45.272;9.984;2022-11-27T00:16:08;46.25;;;27.95;;
49614;SDS011;35517;45.272;9.984;2022-11-27T00:18:35;46.05;;;27.70;;
49614;SDS011;35517;45.272;9.984;2022-11-27T00:21:06;48.42;;;29.77;;
49614;SDS011;35517;45.272;9.984;2022-11-27T00:23:33;43.95;;;26.98;;
49614;SDS011;35517;45.272;9.984;2022-11-27T00:26:00;50.08;;;29.33;;
49614;SDS011;35517;45.272;9.984;2022-11-27T00:28:27;45.25;;;27.58;;
49614;SDS011;35517;45.272;9.984;2022-11-27T00:30:57;42.33;;;26.67;;
49614;SDS011;35517;45.272;9.984;2022-11-27T00:33:25;43.13;;;26.42;;
49614;SDS011;35517;45.272;9.984;2022-11-27T00:35:51;43.33;;;26.75;;
49614;SDS011;35517;45.272;9.984;2022-11-27T00:38:18;43.47;;;26.58;;
49614;SDS011;35517;45.272;9.984;2022-11-27T00:40:47;39.30;;;24.60;;
49614;SDS011;35517;45.272;9.984;2022-11-27T00:43:14;49.60;;;28.02;;
49614;SDS011;35517;45.272;9.984;2022-11-27T00:45:40;44.33;;;27.50;;
49614;SDS011;35517;45.272;9.984;2022-11-27T00:48:07;46.97;;;28.65;;
49614;SDS011;35517;45.272;9.984;2022-11-27T00:50:34;46.40;;;28.38;;
49614;SDS011;35517;45.272;9.984;2022-11-27T00:53:01;47.15;;;29.33;;
49614;SDS011;35517;45.272;9.984;2022-11-27T00:55:27;48.38;;;28.35;;
49614;SDS011;35517;45.272;9.984;2022-11-27T00:57:54;47.20;;;27.42;;
49614;SDS011;35517;45.272;9.984;2022-11-27T01:00:21;42.58;;;25.38;;
49614;SDS011;35517;45.272;9.984;2022-11-27T01:02:47;42.38;;;26.40;;
49614;SDS011;35517;45.272;9.984;2022-11-27T01:05:14;48.72;;;27.00;;
49614;SDS011;35517;45.272;9.984;2022-11-27T01:07:40;45.80;;;27.17;;
49614;SDS011;35517;45.272;9.984;2022-11-27T01:10:08;49.25;;;28.90;;
49614;SDS011;35517;45.272;9.984;2022-11-27T01:12:35;45.97;;;27.40;;
49614;SDS011;35517;45.272;9.984;2022-11-27T01:15:01;42.53;;;26.65;;
49614;SDS011;35517;45.272;9.984;2022-11-27T01:17:28;48.70;;;27.33;;
49614;SDS011;35517;45.272;9.984;2022-11-27T01:19:55;45.35;;;26.95;;
49614;SDS011;35517;45.272;9.984;2022-11-27T01:22:21;46.88;;;28.38;;
49614;SDS011;35517;45.272;9.984;2022-11-27T01:24:48;47.75;;;28.90;;
49614;SDS011;35517;45.272;9.984;2022-11-27T01:27:14;46.17;;;28.05;;
49614;SDS011;35517;45.272;9.984;2022-11-27T01:29:41;44.50;;;27.52;;
49614;SDS011;35517;45.272;9.984;2022-11-27T01:32:08;47.20;;;26.13;;
49614;SDS011;35517;45.272;9.984;2022-11-27T01:34:34;49.33;;;28.88;;
49614;SDS011;35517;45.272;9.984;2022-11-27T01:37:01;46.15;;;28.27;;
49614;SDS011;35517;45.272;9.984;2022-11-27T01:39:27;56.30;;;31.42;;
49614;SDS011;35517;45.272;9.984;2022-11-27T01:41:54;50.25;;;29.90;;
49614;SDS011;35517;45.272;9.984;2022-11-27T01:47:00;50.75;;;29.23;;
49614;SDS011;35517;45.272;9.984;2022-11-27T01:49:47;47.50;;;29.00;;
49614;SDS011;35517;45.272;9.984;2022-11-27T01:52:19;52.35;;;30.30;;
49614;SDS011;35517;45.272;9.984;2022-11-27T01:57:14;47.72;;;28.98;;
49614;SDS011;35517;45.272;9.984;2022-11-27T01:59:42;50.55;;;29.92;;
49614;SDS011;35517;45.272;9.984;2022-11-27T02:02:09;50.53;;;27.88;;
49614;SDS011;35517;45.272;9.984;2022-11-27T02:04:35;52.20;;;29.10;;
49614;SDS011;35517;45.272;9.984;2022-11-27T02:07:02;53.08;;;30.15;;
49614;SDS011;35517;45.272;9.984;2022-11-27T02:09:29;49.42;;;29.40;;
49614;SDS011;35517;45.272;9.984;2022-11-27T02:17:35;44.50;;;30.08;;
49614;SDS011;35517;45.272;9.984;2022-11-27T02:22:47;41.13;;;28.00;;
49614;SDS011;35517;45.272;9.984;2022-11-27T02:30:32;47.10;;;29.35;;
49614;SDS011;35517;45.272;9.984;2022-11-27T02:33:00;48.95;;;28.80;;
49614;SDS011;35517;45.272;9.984;2022-11-27T02:35:44;48.72;;;29.27;;
49614;SDS011;35517;45.272;9.984;2022-11-27T02:38:14;57.72;;;31.58;;
49614;SDS011;35517;45.272;9.984;2022-11-27T02:43:10;50.63;;;30.27;;
49614;SDS011;35517;45.272;9.984;2022-11-27T02:45:45;51.00;;;29.52;;
49614;SDS011;35517;45.272;9.984;2022-11-27T02:48:13;53.22;;;28.77;;
49614;SDS011;35517;45.272;9.984;2022-11-27T02:50:41;54.28;;;30.50;;
49614;SDS011;35517;45.272;9.984;2022-11-27T02:53:27;50.58;;;30.45;;
49614;SDS011;35517;45.272;9.984;2022-11-27T02:55:54;50.90;;;29.77;;
49614;SDS011;35517;45.272;9.984;2022-11-27T02:58:22;49.95;;;29.85;;
49614;SDS011;35517;45.272;9.984;2022-11-27T03:00:50;54.60;;;28.05;;
49614;SDS011;35517;45.272;9.984;2022-11-27T03:03:18;49.15;;;30.92;;
49614;SDS011;35517;45.272;9.984;2022-11-27T03:05:46;66.15;;;31.63;;
49614;SDS011;35517;45.272;9.984;2022-11-27T03:08:27;58.13;;;29.05;;
49614;SDS011;35517;45.272;9.984;2022-11-27T03:13:28;48.42;;;29.13;;
49614;SDS011;35517;45.272;9.984;2022-11-27T03:21:16;45.88;;;26.38;;
49614;SDS011;35517;45.272;9.984;2022-11-27T03:23:46;39.67;;;25.20;;
49614;SDS011;35517;45.272;9.984;2022-11-27T03:26:13;49.67;;;29.10;;
49614;SDS011;35517;45.272;9.984;2022-11-27T03:28:39;39.58;;;25.10;;
49614;SDS011;35517;45.272;9.984;2022-11-27T03:31:08;46.33;;;26.73;;
49614;SDS011;35517;45.272;9.984;2022-11-27T03:33:34;43.08;;;26.70;;
49614;SDS011;35517;45.272;9.984;2022-11-27T03:36:01;46.70;;;24.80;;
49614;SDS011;35517;45.272;9.984;2022-11-27T03:38:28;42.20;;;24.70;;
49614;SDS011;35517;45.272;9.984;2022-11-27T03:41:05;41.65;;;24.95;;
49614;SDS011;35517;45.272;9.984;2022-11-27T03:43:36;41.50;;;26.02;;
49614;SDS011;35517;45.272;9.984;2022-11-27T03:46:08;41.38;;;23.98;;
49614;SDS011;35517;45.272;9.984;2022-11-27T03:48:37;46.03;;;25.80;;
49614;SDS011;35517;45.272;9.984;2022-11-27T03:51:07;41.03;;;24.83;;
49614;SDS011;35517;45.272;9.984;2022-11-27T03:56:32;38.10;;;23.85;;
49614;SDS011;35517;45.272;9.984;2022-11-27T04:01:31;43.22;;;24.63;;
49614;SDS011;35517;45.272;9.984;2022-11-27T04:03:57;41.42;;;25.17;;
49614;SDS011;35517;45.272;9.984;2022-11-27T04:06:24;36.47;;;22.88;;
49614;SDS011;35517;45.272;9.984;2022-11-27T04:08:51;37.30;;;22.27;;
49614;SDS011;35517;45.272;9.984;2022-11-27T04:11:17;37.63;;;21.17;;
49614;SDS011;35517;45.272;9.984;2022-11-27T04:13:44;37.90;;;23.65;;
49614;SDS011;35517;45.272;9.984;2022-11-27T04:16:10;35.63;;;20.42;;
49614;SDS011;35517;45.272;9.984;2022-11-27T04:18:37;35.33;;;22.52;;
49614;SDS011;35517;45.272;9.984;2022-11-27T04:21:03;38.35;;;20.98;;
49614;SDS011;35517;45.272;9.984;2022-11-27T04:23:30;28.88;;;18.75;;
49614;SDS011;35517;45.272;9.984;2022-11-27T04:25:56;40.28;;;19.50;;
49614;SDS011;35517;45.272;9.984;2022-11-27T04:28:23;33.35;;;21.13;;
49614;SDS011;35517;45.272;9.984;2022-11-27T04:30:50;31.80;;;19.50;;
49614;SDS011;35517;45.272;9.984;2022-11-27T04:33:17;34.88;;;19.23;;
49614;SDS011;35517;45.272;9.984;2022-11-27T04:35:44;32.35;;;21.45;;
49614;SDS011;35517;45.272;9.984;2022-11-27T04:38:10;33.80;;;19.33;;
49614;SDS011;35517;45.272;9.984;2022-11-27T04:40:37;32.58;;;19.65;;
49614;SDS011;35517;45.272;9.984;2022-11-27T04:43:03;33.95;;;20.75;;
49614;SDS011;35517;45.272;9.984;2022-11-27T04:45:30;31.10;;;18.88;;
49614;SDS011;35517;45.272;9.984;2022-11-27T04:47:56;26.33;;;16.92;;
49614;SDS011;35517;45.272;9.984;2022-11-27T04:50:23;31.13;;;18.70;;
49614;SDS011;35517;45.272;9.984;2022-11-27T04:52:50;36.05;;;19.42;;
49614;SDS011;35517;45.272;9.984;2022-11-27T04:55:16;29.15;;;17.80;;
49614;SDS011;35517;45.272;9.984;2022-11-27T04:57:43;31.77;;;17.73;;
49614;SDS011;35517;45.272;9.984;2022-11-27T05:00:09;30.83;;;18.15;;
49614;SDS011;35517;45.272;9.984;2022-11-27T05:02:36;30.45;;;16.70;;
49614;SDS011;35517;45.272;9.984;2022-11-27T05:05:03;30.05;;;17.73;;
49614;SDS011;35517;45.272;9.984;2022-11-27T05:07:29;29.80;;;16.65;;
49614;SDS011;35517;45.272;9.984;2022-11-27T05:09:56;31.08;;;18.58;;
49614;SDS011;35517;45.272;9.984;2022-11-27T05:12:22;27.23;;;16.42;;
49614;SDS011;35517;45.272;9.984;2022-11-27T05:14:49;26.73;;;16.92;;
49614;SDS011;35517;45.272;9.984;2022-11-27T05:17:16;26.42;;;18.05;;
49614;SDS011;35517;45.272;9.984;2022-11-27T05:19:42;26.65;;;16.95;;
49614;SDS011;35517;45.272;9.984;2022-11-27T05:22:09;27.88;;;16.10;;
49614;SDS011;35517;45.272;9.984;2022-11-27T05:24:36;28.88;;;18.30;;
49614;SDS011;35517;45.272;9.984;2022-11-27T05:27:02;32.28;;;18.02;;
49614;SDS011;35517;45.272;9.984;2022-11-27T05:29:29;33.67;;;18.17;;
49614;SDS011;35517;45.272;9.984;2022-11-27T05:31:55;27.92;;;17.50;;
49614;SDS011;35517;45.272;9.984;2022-11-27T05:34:22;27.55;;;16.95;;
49614;SDS011;35517;45.272;9.984;2022-11-27T05:36:49;27.85;;;17.48;;
49614;SDS011;35517;45.272;9.984;2022-11-27T05:39:15;25.17;;;17.17;;
49614;SDS011;35517;45.272;9.984;2022-11-27T05:41:42;28.10;;;18.35;;
49614;SDS011;35517;45.272;9.984;2022-11-27T05:44:10;26.67;;;17.48;;
49614;SDS011;35517;45.272;9.984;2022-11-27T05:46:37;27.65;;;18.85;;
49614;SDS011;35517;45.272;9.984;2022-11-27T05:49:03;27.48;;;17.15;;
49614;SDS011;35517;45.272;9.984;2022-11-27T05:51:30;31.30;;;16.77;;
49614;SDS011;35517;45.272;9.984;2022-11-27T05:53:57;24.70;;;17.63;;
49614;SDS011;35517;45.272;9.984;2022-11-27T05:56:24;30.45;;;18.42;;
49614;SDS011;35517;45.272;9.984;2022-11-27T05:58:50;28.27;;;17.30;;
49614;SDS011;35517;45.272;9.984;2022-11-27T06:01:17;28.80;;;17.67;;
49614;SDS011;35517;45.272;9.984;2022-11-27T06:03:44;27.13;;;17.30;;
49614;SDS011;35517;45.272;9.984;2022-11-27T06:06:11;25.83;;;15.90;;
49614;SDS011;35517;45.272;9.984;2022-11-27T06:08:39;27.02;;;17.27;;
49614;SDS011;35517;45.272;9.984;2022-11-27T06:11:06;27.95;;;17.75;;
49614;SDS011;35517;45.272;9.984;2022-11-27T06:13:33;25.25;;;15.50;;
49614;SDS011;35517;45.272;9.984;2022-11-27T06:16:19;30.92;;;17.63;;
49614;SDS011;35517;45.272;9.984;2022-11-27T06:18:49;25.73;;;16.15;;
49614;SDS011;35517;45.272;9.984;2022-11-27T06:21:16;24.27;;;16.45;;
49614;SDS011;35517;45.272;9.984;2022-11-27T06:23:43;27.45;;;16.17;;
49614;SDS011;35517;45.272;9.984;2022-11-27T06:28:36;46.78;;;19.63;;
49614;SDS011;35517;45.272;9.984;2022-11-27T06:31:07;28.88;;;17.95;;
49614;SDS011;35517;45.272;9.984;2022-11-27T06:33:34;26.27;;;16.58;;
49614;SDS011;35517;45.272;9.984;2022-11-27T06:36:01;28.05;;;17.90;;
49614;SDS011;35517;45.272;9.984;2022-11-27T06:38:28;31.92;;;17.65;;
49614;SDS011;35517;45.272;9.984;2022-11-27T06:41:00;27.70;;;18.15;;
49614;SDS011;35517;45.272;9.984;2022-11-27T06:43:27;26.17;;;18.23;;
49614;SDS011;35517;45.272;9.984;2022-11-27T06:45:57;26.83;;;16.52;;
49614;SDS011;35517;45.272;9.984;2022-11-27T06:48:24;28.10;;;17.08;;
49614;SDS011;35517;45.272;9.984;2022-11-27T06:50:50;31.10;;;17.85;;
49614;SDS011;35517;45.272;9.984;2022-11-27T06:53:17;24.00;;;15.88;;
49614;SDS011;35517;45.272;9.984;2022-11-27T06:55:44;32.38;;;15.82;;
49614;SDS011;35517;45.272;9.984;2022-11-27T06:58:11;32.80;;;19.92;;
49614;SDS011;35517;45.272;9.984;2022-11-27T07:00:37;24.88;;;16.23;;
49614;SDS011;35517;45.272;9.984;2022-11-27T07:03:04;27.42;;;16.27;;
49614;SDS011;35517;45.272;9.984;2022-11-27T07:05:30;25.88;;;16.95;;
49614;SDS011;35517;45.272;9.984;2022-11-27T07:07:57;27.13;;;16.45;;
49614;SDS011;35517;45.272;9.984;2022-11-27T07:10:23;26.27;;;16.58;;
49614;SDS011;35517;45.272;9.984;2022-11-27T07:12:50;26.88;;;15.68;;
49614;SDS011;35517;45.272;9.984;2022-11-27T07:15:16;25.70;;;16.45;;
49614;SDS011;35517;45.272;9.984;2022-11-27T07:17:43;29.50;;;17.92;;
49614;SDS011;35517;45.272;9.984;2022-11-27T07:20:10;28.17;;;17.60;;
49614;SDS011;35517;45.272;9.984;2022-11-27T07:22:36;27.65;;;18.50;;
49614;SDS011;35517;45.272;9.984;2022-11-27T07:25:04;30.52;;;16.33;;
49614;SDS011;35517;45.272;9.984;2022-11-27T07:27:30;40.45;;;18.10;;
49614;SDS011;35517;45.272;9.984;2022-11-27T07:29:57;31.33;;;17.67;;
49614;SDS011;35517;45.272;9.984;2022-11-27T07:32:24;27.80;;;16.65;;
49614;SDS011;35517;45.272;9.984;2022-11-27T07:34:50;23.67;;;15.65;;
49614;SDS011;35517;45.272;9.984;2022-11-27T07:37:17;29.88;;;16.55;;
49614;SDS011;35517;45.272;9.984;2022-11-27T07:39:43;29.02;;;16.98;;
49614;SDS011;35517;45.272;9.984;2022-11-27T07:42:10;26.02;;;16.23;;
49614;SDS011;35517;45.272;9.984;2022-11-27T07:44:36;23.42;;;15.00;;
49614;SDS011;35517;45.272;9.984;2022-11-27T07:47:03;26.17;;;16.00;;
49614;SDS011;35517;45.272;9.984;2022-11-27T07:49:29;22.13;;;14.13;;
49614;SDS011;35517;45.272;9.984;2022-11-27T07:51:56;23.48;;;14.65;;
49614;SDS011;35517;45.272;9.984;2022-11-27T07:54:22;22.58;;;14.55;;
49614;SDS011;35517;45.272;9.984;2022-11-27T07:56:49;21.30;;;12.68;;
49614;SDS011;35517;45.272;9.984;2022-11-27T07:59:15;19.27;;;12.43;;
49614;SDS011;35517;45.272;9.984;2022-11-27T08:01:42;15.02;;;11.10;;
49614;SDS011;35517;45.272;9.984;2022-11-27T08:04:09;17.70;;;12.48;;
49614;SDS011;35517;45.272;9.984;2022-11-27T08:06:35;18.88;;;11.70;;
49614;SDS011;35517;45.272;9.984;2022-11-27T08:09:02;18.48;;;11.38;;
49614;SDS011;35517;45.272;9.984;2022-11-27T08:11:29;19.80;;;12.27;;
49614;SDS011;35517;45.272;9.984;2022-11-27T08:13:58;26.98;;;17.58;;
49614;SDS011;35517;45.272;9.984;2022-11-27T08:16:26;53.90;;;31.52;;
49614;SDS011;35517;45.272;9.984;2022-11-27T08:18:53;55.85;;;35.53;;
49614;SDS011;35517;45.272;9.984;2022-11-27T08:21:21;95.07;;;54.97;;
49614;SDS011;35517;45.272;9.984;2022-11-27T08:23:47;182.32;;;99.60;;
49614;SDS011;35517;45.272;9.984;2022-11-27T08:26:14;134.45;;;70.60;;
49614;SDS011;35517;45.272;9.984;2022-11-27T08:28:41;69.07;;;37.33;;
49614;SDS011;35517;45.272;9.984;2022-11-27T08:31:09;36.80;;;21.13;;
49614;SDS011;35517;45.272;9.984;2022-11-27T08:33:36;19.95;;;12.63;;
49614;SDS011;35517;45.272;9.984;2022-11-27T08:36:03;21.77;;;13.75;;
49614;SDS011;35517;45.272;9.984;2022-11-27T08:38:30;12.55;;;9.40;;
49614;SDS011;35517;45.272;9.984;2022-11-27T08:40:58;14.20;;;8.88;;
49614;SDS011;35517;45.272;9.984;2022-11-27T08:43:24;21.23;;;9.93;;
49614;SDS011;35517;45.272;9.984;2022-11-27T08:45:51;15.20;;;9.25;;
49614;SDS011;35517;45.272;9.984;2022-11-27T08:48:18;21.48;;;9.88;;
49614;SDS011;35517;45.272;9.984;2022-11-27T08:50:46;11.25;;;8.82;;
49614;SDS011;35517;45.272;9.984;2022-11-27T08:53:12;11.98;;;7.65;;
49614;SDS011;35517;45.272;9.984;2022-11-27T08:55:39;13.68;;;10.27;;
49614;SDS011;35517;45.272;9.984;2022-11-27T08:58:06;12.85;;;8.35;;
49614;SDS011;35517;45.272;9.984;2022-11-27T09:00:33;12.23;;;7.68;;
49614;SDS011;35517;45.272;9.984;2022-11-27T09:03:00;18.17;;;8.80;;
49614;SDS011;35517;45.272;9.984;2022-11-27T09:05:27;11.80;;;8.43;;
49614;SDS011;35517;45.272;9.984;2022-11-27T09:07:54;16.35;;;9.77;;
49614;SDS011;35517;45.272;9.984;2022-11-27T09:10:21;15.80;;;8.50;;
49614;SDS011;35517;45.272;9.984;2022-11-27T09:12:48;12.13;;;7.80;;
49614;SDS011;35517;45.272;9.984;2022-11-27T09:15:15;11.60;;;7.45;;
49614;SDS011;35517;45.272;9.984;2022-11-27T09:17:41;11.93;;;8.30;;
49614;SDS011;35517;45.272;9.984;2022-11-27T09:20:08;14.73;;;8.05;;
49614;SDS011;35517;45.272;9.984;2022-11-27T09:22:35;13.18;;;8.85;;
49614;SDS011;35517;45.272;9.984;2022-11-27T09:25:05;15.35;;;8.77;;
49614;SDS011;35517;45.272;9.984;2022-11-27T09:27:33;15.18;;;9.60;;
49614;SDS011;35517;45.272;9.984;2022-11-27T09:30:03;21.25;;;9.48;;
49614;SDS011;35517;45.272;9.984;2022-11-27T09:32:30;15.63;;;8.65;;
49614;SDS011;35517;45.272;9.984;2022-11-27T09:34:56;16.17;;;9.35;;
49614;SDS011;35517;45.272;9.984;2022-11-27T09:37:23;16.17;;;9.60;;
49614;SDS011;35517;45.272;9.984;2022-11-27T09:39:49;14.13;;;8.82;;
49614;SDS011;35517;45.272;9.984;2022-11-27T09:42:36;17.33;;;9.65;;
49614;SDS011;35517;45.272;9.984;2022-11-27T09:45:06;13.45;;;9.77;;
49614;SDS011;35517;45.272;9.984;2022-11-27T09:50:00;12.48;;;7.85;;
49614;SDS011;35517;45.272;9.984;2022-11-27T09:52:41;13.43;;;8.30;;
49614;SDS011;35517;45.272;9.984;2022-11-27T09:55:12;12.15;;;8.05;;
49614;SDS011;35517;45.272;9.984;2022-11-27T09:57:39;11.70;;;8.18;;
49614;SDS011;35517;45.272;9.984;2022-11-27T10:00:13;12.15;;;8.30;;
49614;SDS011;35517;45.272;9.984;2022-11-27T10:02:43;9.40;;;8.23;;
49614;SDS011;35517;45.272;9.984;2022-11-27T10:05:15;9.18;;;7.10;;
49614;SDS011;35517;45.272;9.984;2022-11-27T10:07:50;11.30;;;7.25;;
49614;SDS011;35517;45.272;9.984;2022-11-27T10:18:29;11.52;;;6.80;;
49614;SDS011;35517;45.272;9.984;2022-11-27T10:21:06;11.05;;;7.13;;
49614;SDS011;35517;45.272;9.984;2022-11-27T10:26:52;12.38;;;6.72;;
49614;SDS011;35517;45.272;9.984;2022-11-27T10:28:59;11.52;;;7.63;;
49614;SDS011;35517;45.272;9.984;2022-11-27T10:31:34;8.38;;;6.03;;
49614;SDS011;35517;45.272;9.984;2022-11-27T10:34:02;20.98;;;5.80;;
49614;SDS011;35517;45.272;9.984;2022-11-27T10:36:32;13.23;;;7.13;;
49614;SDS011;35517;45.272;9.984;2022-11-27T10:38:59;14.23;;;9.57;;
49614;SDS011;35517;45.272;9.984;2022-11-27T10:41:31;13.98;;;7.22;;
49614;SDS011;35517;45.272;9.984;2022-11-27T10:43:59;10.77;;;6.22;;
49614;SDS011;35517;45.272;9.984;2022-11-27T10:46:29;8.57;;;7.03;;
49614;SDS011;35517;45.272;9.984;2022-11-27T10:48:56;9.43;;;7.10;;
49614;SDS011;35517;45.272;9.984;2022-11-27T10:51:24;15.88;;;8.52;;
49614;SDS011;35517;45.272;9.984;2022-11-27T10:53:54;13.30;;;7.20;;
49614;SDS011;35517;45.272;9.984;2022-11-27T10:59:08;11.27;;;6.90;;
49614;SDS011;35517;45.272;9.984;2022-11-27T11:01:47;11.57;;;6.55;;
49614;SDS011;35517;45.272;9.984;2022-11-27T11:04:14;8.02;;;5.85;;
49614;SDS011;35517;45.272;9.984;2022-11-27T11:06:43;6.97;;;5.20;;
49614;SDS011;35517;45.272;9.984;2022-11-27T11:09:14;7.78;;;5.60;;
49614;SDS011;35517;45.272;9.984;2022-11-27T11:11:42;11.05;;;5.75;;
49614;SDS011;35517;45.272;9.984;2022-11-27T11:14:14;5.82;;;4.50;;
49614;SDS011;35517;45.272;9.984;2022-11-27T11:16:41;7.05;;;4.30;;
49614;SDS011;35517;45.272;9.984;2022-11-27T11:21:47;7.03;;;4.82;;
49614;SDS011;35517;45.272;9.984;2022-11-27T11:24:17;7.03;;;5.07;;
49614;SDS011;35517;45.272;9.984;2022-11-27T11:26:48;7.13;;;4.37;;
49614;SDS011;35517;45.272;9.984;2022-11-27T11:29:24;6.15;;;4.32;;
49614;SDS011;35517;45.272;9.984;2022-11-27T11:31:52;9.80;;;4.78;;
49614;SDS011;35517;45.272;9.984;2022-11-27T11:34:24;6.25;;;4.38;;
49614;SDS011;35517;45.272;9.984;2022-11-27T11:36:55;5.85;;;4.00;;
49614;SDS011;35517;45.272;9.984;2022-11-27T11:39:27;8.63;;;4.53;;
49614;SDS011;35517;45.272;9.984;2022-11-27T11:41:54;7.18;;;4.05;;
49614;SDS011;35517;45.272;9.984;2022-11-27T11:44:22;4.70;;;3.28;;
49614;SDS011;35517;45.272;9.984;2022-11-27T11:46:52;9.32;;;5.03;;
49614;SDS011;35517;45.272;9.984;2022-11-27T11:49:23;5.85;;;4.28;;
49614;SDS011;35517;45.272;9.984;2022-11-27T11:56:49;7.78;;;4.88;;
49614;SDS011;35517;45.272;9.984;2022-11-27T11:59:41;6.30;;;4.30;;
49614;SDS011;35517;45.272;9.984;2022-11-27T12:02:24;9.07;;;4.35;;
49614;SDS011;35517;45.272;9.984;2022-11-27T12:10:26;7.07;;;4.28;;
49614;SDS011;35517;45.272;9.984;2022-11-27T12:13:03;5.43;;;4.15;;
49614;SDS011;35517;45.272;9.984;2022-11-27T12:18:50;4.60;;;3.50;;
49614;SDS011;35517;45.272;9.984;2022-11-27T12:26:19;5.57;;;4.38;;
49614;SDS011;35517;45.272;9.984;2022-11-27T12:31:27;7.20;;;5.00;;
49614;SDS011;35517;45.272;9.984;2022-11-27T12:39:09;14.15;;;4.78;;
49614;SDS011;35517;45.272;9.984;2022-11-27T12:41:50;9.20;;;4.68;;
49614;SDS011;35517;45.272;9.984;2022-11-27T12:44:22;14.02;;;4.70;;
49614;SDS011;35517;45.272;9.984;2022-11-27T12:46:55;7.50;;;4.60;;
49614;SDS011;35517;45.272;9.984;2022-11-27T12:51:54;11.20;;;4.13;;
49614;SDS011;35517;45.272;9.984;2022-11-27T12:54:31;7.72;;;4.57;;
49614;SDS011;35517;45.272;9.984;2022-11-27T12:57:02;9.98;;;4.85;;
49614;SDS011;35517;45.272;9.984;2022-11-27T13:04:45;7.43;;;4.65;;
49614;SDS011;35517;45.272;9.984;2022-11-27T13:09:49;7.85;;;3.83;;
49614;SDS011;35517;45.272;9.984;2022-11-27T13:12:21;8.05;;;4.68;;
49614;SDS011;35517;45.272;9.984;2022-11-27T13:14:52;18.02;;;6.93;;
49614;SDS011;35517;45.272;9.984;2022-11-27T13:17:19;6.55;;;4.40;;
49614;SDS011;35517;45.272;9.984;2022-11-27T13:19:47;5.63;;;3.53;;
49614;SDS011;35517;45.272;9.984;2022-11-27T13:22:16;10.82;;;4.80;;
49614;SDS011;35517;45.272;9.984;2022-11-27T13:24:46;11.63;;;5.63;;
49614;SDS011;35517;45.272;9.984;2022-11-27T13:27:16;11.13;;;5.97;;
49614;SDS011;35517;45.272;9.984;2022-11-27T13:32:59;7.63;;;5.10;;
49614;SDS011;35517;45.272;9.984;2022-11-27T13:35:05;7.80;;;4.90;;
49614;SDS011;35517;45.272;9.984;2022-11-27T13:42:25;9.07;;;4.90;;
49614;SDS011;35517;45.272;9.984;2022-11-27T13:44:59;8.73;;;4.72;;
49614;SDS011;35517;45.272;9.984;2022-11-27T13:47:28;7.78;;;5.88;;
49614;SDS011;35517;45.272;9.984;2022-11-27T13:50:02;12.32;;;5.18;;
49614;SDS011;35517;45.272;9.984;2022-11-27T13:52:29;8.00;;;5.80;;
49614;SDS011;35517;45.272;9.984;2022-11-27T13:55:01;10.20;;;6.80;;
49614;SDS011;35517;45.272;9.984;2022-11-27T13:57:28;7.75;;;4.53;;
49614;SDS011;35517;45.272;9.984;2022-11-27T13:59:56;7.25;;;5.20;;
49614;SDS011;35517;45.272;9.984;2022-11-27T14:02:23;13.02;;;5.75;;
49614;SDS011;35517;45.272;9.984;2022-11-27T14:04:52;5.88;;;4.75;;
49614;SDS011;35517;45.272;9.984;2022-11-27T14:07:18;7.53;;;4.50;;
49614;SDS011;35517;45.272;9.984;2022-11-27T14:09:47;8.05;;;5.10;;
49614;SDS011;35517;45.272;9.984;2022-11-27T14:12:19;9.75;;;6.03;;
49614;SDS011;35517;45.272;9.984;2022-11-27T14:17:37;8.63;;;5.20;;
49614;SDS011;35517;45.272;9.984;2022-11-27T14:22:45;13.30;;;6.95;;
49614;SDS011;35517;45.272;9.984;2022-11-27T14:25:18;13.38;;;8.40;;
49614;SDS011;35517;45.272;9.984;2022-11-27T14:27:46;10.98;;;6.90;;
49614;SDS011;35517;45.272;9.984;2022-11-27T14:30:24;8.18;;;5.32;;
49614;SDS011;35517;45.272;9.984;2022-11-27T14:32:52;7.78;;;5.53;;
49614;SDS011;35517;45.272;9.984;2022-11-27T14:35:19;7.28;;;5.10;;
49614;SDS011;35517;45.272;9.984;2022-11-27T14:37:47;8.02;;;4.60;;
49614;SDS011;35517;45.272;9.984;2022-11-27T14:40:20;7.40;;;5.28;;
49614;SDS011;35517;45.272;9.984;2022-11-27T14:42:48;7.78;;;5.47;;
49614;SDS011;35517;45.272;9.984;2022-11-27T14:45:16;6.57;;;4.90;;
49614;SDS011;35517;45.272;9.984;2022-11-27T14:47:48;8.73;;;5.00;;
49614;SDS011;35517;45.272;9.984;2022-11-27T14:50:15;6.78;;;4.47;;
49614;SDS011;35517;45.272;9.984;2022-11-27T14:52:43;8.50;;;4.38;;
49614;SDS011;35517;45.272;9.984;2022-11-27T14:55:13;5.88;;;4.55;;
49614;SDS011;35517;45.272;9.984;2022-11-27T14:57:41;9.05;;;5.80;;
49614;SDS011;35517;45.272;9.984;2022-11-27T15:00:17;11.85;;;5.65;;
49614;SDS011;35517;45.272;9.984;2022-11-27T15:02:49;7.85;;;5.53;;
49614;SDS011;35517;45.272;9.984;2022-11-27T15:05:17;6.15;;;4.70;;
49614;SDS011;35517;45.272;9.984;2022-11-27T15:07:44;7.13;;;4.60;;
49614;SDS011;35517;45.272;9.984;2022-11-27T15:10:29;10.98;;;6.63;;
49614;SDS011;35517;45.272;9.984;2022-11-27T15:12:57;9.63;;;5.75;;
49614;SDS011;35517;45.272;9.984;2022-11-27T15:15:25;17.35;;;5.97;;
49614;SDS011;35517;45.272;9.984;2022-11-27T15:17:53;9.75;;;5.85;;
49614;SDS011;35517;45.272;9.984;2022-11-27T15:22:55;10.75;;;7.53;;
49614;SDS011;35517;45.272;9.984;2022-11-27T15:27:59;9.32;;;5.47;;
49614;SDS011;35517;45.272;9.984;2022-11-27T15:30:26;10.18;;;6.07;;
49614;SDS011;35517;45.272;9.984;2022-11-27T15:32:53;10.00;;;6.13;;
49614;SDS011;35517;45.272;9.984;2022-11-27T15:35:31;10.38;;;5.97;;
49614;SDS011;35517;45.272;9.984;2022-11-27T15:38:07;9.10;;;6.88;;
49614;SDS011;35517;45.272;9.984;2022-11-27T15:43:01;11.48;;;5.80;;
49614;SDS011;35517;45.272;9.984;2022-11-27T15:45:29;9.15;;;6.50;;
49614;SDS011;35517;45.272;9.984;2022-11-27T15:47:57;10.07;;;6.18;;
49614;SDS011;35517;45.272;9.984;2022-11-27T15:50:24;8.60;;;4.90;;
49614;SDS011;35517;45.272;9.984;2022-11-27T15:52:51;7.75;;;6.40;;
49614;SDS011;35517;45.272;9.984;2022-11-27T15:55:18;10.80;;;6.47;;
49614;SDS011;35517;45.272;9.984;2022-11-27T15:57:45;10.35;;;5.93;;
49614;SDS011;35517;45.272;9.984;2022-11-27T16:00:12;9.80;;;7.50;;
49614;SDS011;35517;45.272;9.984;2022-11-27T16:02:39;14.20;;;7.07;;
49614;SDS011;35517;45.272;9.984;2022-11-27T16:05:06;9.48;;;6.80;;
49614;SDS011;35517;45.272;9.984;2022-11-27T16:07:34;11.90;;;8.07;;
49614;SDS011;35517;45.272;9.984;2022-11-27T16:10:00;13.68;;;8.27;;
49614;SDS011;35517;45.272;9.984;2022-11-27T16:12:27;12.63;;;8.00;;
49614;SDS011;35517;45.272;9.984;2022-11-27T16:14:55;11.10;;;7.32;;
49614;SDS011;35517;45.272;9.984;2022-11-27T16:17:22;16.52;;;9.27;;
49614;SDS011;35517;45.272;9.984;2022-11-27T16:19:48;12.13;;;8.63;;
49614;SDS011;35517;45.272;9.984;2022-11-27T16:22:15;14.70;;;8.73;;
49614;SDS011;35517;45.272;9.984;2022-11-27T16:24:42;16.58;;;9.73;;
49614;SDS011;35517;45.272;9.984;2022-11-27T16:27:09;14.45;;;9.63;;
49614;SDS011;35517;45.272;9.984;2022-11-27T16:29:36;14.32;;;9.40;;
49614;SDS011;35517;45.272;9.984;2022-11-27T16:32:03;14.73;;;10.07;;